sensor_id;sensor_type;location;lat;lon;timestamp;temperature;humidity
40454;DHT22;26160;51.858;4.398;2022-08-19T00:00:32;17.80;99.90
40454;DHT22;26160;51.858;4.398;2022-08-19T00:02:58;17.80;99.90
40454;DHT22;26160;51.858;4.398;2022-08-19T00:05:24;17.80;99.90
40454;DHT22;26160;51.858;4.398;2022-08-19T00:07:49;17.80;99.90
40454;DHT22;26160;51.858;4.398;2022-08-19T00:10:16;17.70;99.90
40454;DHT22;26160;51.858;4.398;2022-08-19T00:12:43;17.70;99.90
40454;DHT22;26160;51.858;4.398;2022-08-19T00:15:10;17.70;99.90
40454;DHT22;26160;51.858;4.398;2022-08-19T00:17:40;17.70;99.90
40454;DHT22;26160;51.858;4.398;2022-08-19T00:20:07;17.70;99.90
40454;DHT22;26160;51.858;4.398;2022-08-19T00:22:33;17.70;99.90
40454;DHT22;26160;51.858;4.398;2022-08-19T00:25:00;17.70;99.90
40454;DHT22;26160;51.858;4.398;2022-08-19T00:27:26;17.70;99.90
40454;DHT22;26160;51.858;4.398;2022-08-19T00:29:52;17.70;99.90
40454;DHT22;26160;51.858;4.398;2022-08-19T00:32:17;17.70;99.90
40454;DHT22;26160;51.858;4.398;2022-08-19T00:34:44;17.70;99.90
40454;DHT22;26160;51.858;4.398;2022-08-19T00:37:10;17.70;99.90
40454;DHT22;26160;51.858;4.398;2022-08-19T00:39:36;17.60;99.90
40454;DHT22;26160;51.858;4.398;2022-08-19T00:42:01;17.60;99.90
40454;DHT22;26160;51.858;4.398;2022-08-19T00:44:28;17.60;99.90
40454;DHT22;26160;51.858;4.398;2022-08-19T00:46:55;17.50;99.90
40454;DHT22;26160;51.858;4.398;2022-08-19T00:49:23;17.50;99.90
40454;DHT22;26160;51.858;4.398;2022-08-19T00:51:51;17.50;99.90
40454;DHT22;26160;51.858;4.398;2022-08-19T00:54:18;17.50;99.90
40454;DHT22;26160;51.858;4.398;2022-08-19T00:56:45;17.60;99.90
40454;DHT22;26160;51.858;4.398;2022-08-19T00:59:11;17.60;99.90
40454;DHT22;26160;51.858;4.398;2022-08-19T01:01:38;17.60;99.90
40454;DHT22;26160;51.858;4.398;2022-08-19T01:04:05;17.50;99.90
40454;DHT22;26160;51.858;4.398;2022-08-19T01:06:31;17.50;99.90
40454;DHT22;26160;51.858;4.398;2022-08-19T01:08:58;17.50;99.90
40454;DHT22;26160;51.858;4.398;2022-08-19T01:11:24;17.50;99.90
40454;DHT22;26160;51.858;4.398;2022-08-19T01:13:51;17.50;99.90
40454;DHT22;26160;51.858;4.398;2022-08-19T01:16:18;17.50;99.90
40454;DHT22;26160;51.858;4.398;2022-08-19T01:18:45;17.50;99.90
40454;DHT22;26160;51.858;4.398;2022-08-19T01:21:20;17.50;99.90
40454;DHT22;26160;51.858;4.398;2022-08-19T01:23:47;17.50;99.90
40454;DHT22;26160;51.858;4.398;2022-08-19T01:26:16;17.50;99.90
40454;DHT22;26160;51.858;4.398;2022-08-19T01:28:43;17.50;99.90
40454;DHT22;26160;51.858;4.398;2022-08-19T01:31:10;17.40;99.90
40454;DHT22;26160;51.858;4.398;2022-08-19T01:33:37;17.40;99.90
40454;DHT22;26160;51.858;4.398;2022-08-19T01:36:04;17.40;99.90
40454;DHT22;26160;51.858;4.398;2022-08-19T01:38:30;17.40;99.90
40454;DHT22;26160;51.858;4.398;2022-08-19T01:40:57;17.40;99.90
40454;DHT22;26160;51.858;4.398;2022-08-19T01:43:24;17.40;99.90
40454;DHT22;26160;51.858;4.398;2022-08-19T01:45:49;17.40;99.90
40454;DHT22;26160;51.858;4.398;2022-08-19T01:48:16;17.30;99.90
40454;DHT22;26160;51.858;4.398;2022-08-19T01:50:42;17.30;99.90
40454;DHT22;26160;51.858;4.398;2022-08-19T01:53:10;17.30;99.90
40454;DHT22;26160;51.858;4.398;2022-08-19T01:55:37;17.30;99.90
40454;DHT22;26160;51.858;4.398;2022-08-19T01:58:03;17.30;99.90
40454;DHT22;26160;51.858;4.398;2022-08-19T02:00:31;17.40;99.90
40454;DHT22;26160;51.858;4.398;2022-08-19T02:02:57;17.40;99.90
40454;DHT22;26160;51.858;4.398;2022-08-19T02:05:23;17.40;99.90
40454;DHT22;26160;51.858;4.398;2022-08-19T02:07:49;17.40;99.90
40454;DHT22;26160;51.858;4.398;2022-08-19T02:10:20;17.40;99.90
40454;DHT22;26160;51.858;4.398;2022-08-19T02:12:46;17.30;99.90
40454;DHT22;26160;51.858;4.398;2022-08-19T02:15:12;17.40;99.90
40454;DHT22;26160;51.858;4.398;2022-08-19T02:17:39;17.40;99.90
40454;DHT22;26160;51.858;4.398;2022-08-19T02:20:05;17.40;99.90
40454;DHT22;26160;51.858;4.398;2022-08-19T02:22:32;17.40;99.90
40454;DHT22;26160;51.858;4.398;2022-08-19T02:24:58;17.40;99.90
40454;DHT22;26160;51.858;4.398;2022-08-19T02:27:25;17.40;99.90
40454;DHT22;26160;51.858;4.398;2022-08-19T02:29:51;17.40;99.90
40454;DHT22;26160;51.858;4.398;2022-08-19T02:32:18;17.40;99.90
40454;DHT22;26160;51.858;4.398;2022-08-19T02:34:47;17.40;99.90
40454;DHT22;26160;51.858;4.398;2022-08-19T02:37:13;17.50;99.90
40454;DHT22;26160;51.858;4.398;2022-08-19T02:39:58;17.50;99.90
40454;DHT22;26160;51.858;4.398;2022-08-19T02:42:24;17.50;99.90
40454;DHT22;26160;51.858;4.398;2022-08-19T02:44:50;17.50;99.90
40454;DHT22;26160;51.858;4.398;2022-08-19T02:47:17;17.50;99.90
40454;DHT22;26160;51.858;4.398;2022-08-19T02:49:44;17.40;99.90
40454;DHT22;26160;51.858;4.398;2022-08-19T02:52:10;17.40;99.90
40454;DHT22;26160;51.858;4.398;2022-08-19T02:54:37;17.30;99.90
40454;DHT22;26160;51.858;4.398;2022-08-19T02:57:04;17.30;99.90
40454;DHT22;26160;51.858;4.398;2022-08-19T02:59:30;17.30;99.90
40454;DHT22;26160;51.858;4.398;2022-08-19T03:01:56;17.30;99.90
40454;DHT22;26160;51.858;4.398;2022-08-19T03:04:22;17.30;99.90
40454;DHT22;26160;51.858;4.398;2022-08-19T03:06:49;17.50;99.90
40454;DHT22;26160;51.858;4.398;2022-08-19T03:09:16;17.50;99.90
40454;DHT22;26160;51.858;4.398;2022-08-19T03:11:43;17.50;99.90
40454;DHT22;26160;51.858;4.398;2022-08-19T03:14:09;17.50;99.90
40454;DHT22;26160;51.858;4.398;2022-08-19T03:16:41;17.60;99.90
40454;DHT22;26160;51.858;4.398;2022-08-19T03:19:07;17.60;99.90
40454;DHT22;26160;51.858;4.398;2022-08-19T03:21:34;17.60;99.90
40454;DHT22;26160;51.858;4.398;2022-08-19T03:24:01;17.60;99.90
40454;DHT22;26160;51.858;4.398;2022-08-19T03:26:27;17.60;99.90
40454;DHT22;26160;51.858;4.398;2022-08-19T03:28:53;17.60;99.90
40454;DHT22;26160;51.858;4.398;2022-08-19T03:31:20;17.60;99.90
40454;DHT22;26160;51.858;4.398;2022-08-19T03:33:50;17.60;99.90
40454;DHT22;26160;51.858;4.398;2022-08-19T03:36:18;17.50;99.90
40454;DHT22;26160;51.858;4.398;2022-08-19T03:38:47;17.60;99.90
40454;DHT22;26160;51.858;4.398;2022-08-19T03:41:15;17.60;99.90
40454;DHT22;26160;51.858;4.398;2022-08-19T03:43:41;17.60;99.90
40454;DHT22;26160;51.858;4.398;2022-08-19T03:46:09;17.60;99.90
40454;DHT22;26160;51.858;4.398;2022-08-19T03:48:35;17.50;99.90
40454;DHT22;26160;51.858;4.398;2022-08-19T03:51:02;17.50;99.90
40454;DHT22;26160;51.858;4.398;2022-08-19T03:53:29;17.50;99.90
40454;DHT22;26160;51.858;4.398;2022-08-19T03:55:55;17.50;99.90
40454;DHT22;26160;51.858;4.398;2022-08-19T03:58:22;17.50;99.90
40454;DHT22;26160;51.858;4.398;2022-08-19T04:00:48;17.60;99.90
40454;DHT22;26160;51.858;4.398;2022-08-19T04:03:14;17.60;99.90
40454;DHT22;26160;51.858;4.398;2022-08-19T04:05:40;17.60;99.90
40454;DHT22;26160;51.858;4.398;2022-08-19T04:08:06;17.70;99.90
40454;DHT22;26160;51.858;4.398;2022-08-19T04:10:36;17.70;99.90
40454;DHT22;26160;51.858;4.398;2022-08-19T04:13:03;17.70;99.90
40454;DHT22;26160;51.858;4.398;2022-08-19T04:15:32;17.70;99.90
40454;DHT22;26160;51.858;4.398;2022-08-19T04:18:04;17.70;99.90
40454;DHT22;26160;51.858;4.398;2022-08-19T04:20:38;17.80;99.90
40454;DHT22;26160;51.858;4.398;2022-08-19T04:23:04;17.80;99.90
40454;DHT22;26160;51.858;4.398;2022-08-19T04:25:34;17.80;99.90
40454;DHT22;26160;51.858;4.398;2022-08-19T04:28:00;17.90;99.90
40454;DHT22;26160;51.858;4.398;2022-08-19T04:30:26;17.90;99.90
40454;DHT22;26160;51.858;4.398;2022-08-19T04:32:52;17.90;99.90
40454;DHT22;26160;51.858;4.398;2022-08-19T04:35:18;17.90;99.90
40454;DHT22;26160;51.858;4.398;2022-08-19T04:37:44;18.00;99.90
40454;DHT22;26160;51.858;4.398;2022-08-19T04:40:10;18.00;99.90
40454;DHT22;26160;51.858;4.398;2022-08-19T04:42:54;18.00;99.90
40454;DHT22;26160;51.858;4.398;2022-08-19T04:45:20;18.10;99.90
40454;DHT22;26160;51.858;4.398;2022-08-19T04:47:47;18.10;99.90
40454;DHT22;26160;51.858;4.398;2022-08-19T04:50:13;18.10;99.90
40454;DHT22;26160;51.858;4.398;2022-08-19T04:52:39;18.10;99.90
40454;DHT22;26160;51.858;4.398;2022-08-19T04:55:09;18.10;99.90
40454;DHT22;26160;51.858;4.398;2022-08-19T04:57:37;18.20;99.90
40454;DHT22;26160;51.858;4.398;2022-08-19T05:00:06;18.20;99.90
40454;DHT22;26160;51.858;4.398;2022-08-19T05:02:32;18.20;99.90
40454;DHT22;26160;51.858;4.398;2022-08-19T05:04:58;18.20;99.90
40454;DHT22;26160;51.858;4.398;2022-08-19T05:07:26;18.20;99.90
40454;DHT22;26160;51.858;4.398;2022-08-19T05:09:52;18.20;99.90
40454;DHT22;26160;51.858;4.398;2022-08-19T05:12:18;18.20;99.90
40454;DHT22;26160;51.858;4.398;2022-08-19T05:14:45;18.20;99.90
40454;DHT22;26160;51.858;4.398;2022-08-19T05:17:14;18.30;99.90
40454;DHT22;26160;51.858;4.398;2022-08-19T05:19:40;18.30;99.90
40454;DHT22;26160;51.858;4.398;2022-08-19T05:22:43;18.20;99.90
40454;DHT22;26160;51.858;4.398;2022-08-19T05:25:14;18.20;99.90
40454;DHT22;26160;51.858;4.398;2022-08-19T05:27:40;18.20;99.90
40454;DHT22;26160;51.858;4.398;2022-08-19T05:30:07;18.30;99.90
40454;DHT22;26160;51.858;4.398;2022-08-19T05:32:33;18.20;99.90
40454;DHT22;26160;51.858;4.398;2022-08-19T05:34:59;18.30;99.90
40454;DHT22;26160;51.858;4.398;2022-08-19T05:37:25;18.30;99.90
40454;DHT22;26160;51.858;4.398;2022-08-19T05:39:53;18.40;99.90
40454;DHT22;26160;51.858;4.398;2022-08-19T05:42:20;18.50;99.90
40454;DHT22;26160;51.858;4.398;2022-08-19T05:44:47;18.50;99.90
40454;DHT22;26160;51.858;4.398;2022-08-19T05:47:14;18.40;99.90
40454;DHT22;26160;51.858;4.398;2022-08-19T05:49:41;18.50;99.90
40454;DHT22;26160;51.858;4.398;2022-08-19T05:52:09;18.50;99.90
40454;DHT22;26160;51.858;4.398;2022-08-19T05:54:37;18.60;99.90
40454;DHT22;26160;51.858;4.398;2022-08-19T05:57:03;18.60;99.90
40454;DHT22;26160;51.858;4.398;2022-08-19T05:59:29;18.60;99.90
40454;DHT22;26160;51.858;4.398;2022-08-19T06:01:55;18.70;99.90
40454;DHT22;26160;51.858;4.398;2022-08-19T06:04:22;18.70;99.90
40454;DHT22;26160;51.858;4.398;2022-08-19T06:06:49;18.80;99.90
40454;DHT22;26160;51.858;4.398;2022-08-19T06:09:17;18.80;99.90
40454;DHT22;26160;51.858;4.398;2022-08-19T06:11:45;18.90;99.90
40454;DHT22;26160;51.858;4.398;2022-08-19T06:14:13;18.80;99.90
40454;DHT22;26160;51.858;4.398;2022-08-19T06:16:40;18.90;99.90
40454;DHT22;26160;51.858;4.398;2022-08-19T06:19:08;18.90;99.90
40454;DHT22;26160;51.858;4.398;2022-08-19T06:21:34;18.90;99.90
40454;DHT22;26160;51.858;4.398;2022-08-19T06:24:03;19.00;99.90
40454;DHT22;26160;51.858;4.398;2022-08-19T06:26:30;19.10;99.90
40454;DHT22;26160;51.858;4.398;2022-08-19T06:28:56;19.10;99.90
40454;DHT22;26160;51.858;4.398;2022-08-19T06:31:24;19.20;99.90
40454;DHT22;26160;51.858;4.398;2022-08-19T06:33:50;19.20;99.90
40454;DHT22;26160;51.858;4.398;2022-08-19T06:36:17;19.20;99.90
40454;DHT22;26160;51.858;4.398;2022-08-19T06:38:43;19.30;99.90
40454;DHT22;26160;51.858;4.398;2022-08-19T06:41:09;19.40;99.90
40454;DHT22;26160;51.858;4.398;2022-08-19T06:43:35;19.40;99.90
40454;DHT22;26160;51.858;4.398;2022-08-19T06:46:02;19.50;99.90
40454;DHT22;26160;51.858;4.398;2022-08-19T06:48:29;19.50;99.90
40454;DHT22;26160;51.858;4.398;2022-08-19T06:50:55;19.50;99.90
40454;DHT22;26160;51.858;4.398;2022-08-19T06:53:21;19.50;99.90
40454;DHT22;26160;51.858;4.398;2022-08-19T06:55:47;19.50;99.90
40454;DHT22;26160;51.858;4.398;2022-08-19T06:58:13;19.60;99.90
40454;DHT22;26160;51.858;4.398;2022-08-19T07:00:40;19.70;99.90
40454;DHT22;26160;51.858;4.398;2022-08-19T07:03:06;19.70;99.90
40454;DHT22;26160;51.858;4.398;2022-08-19T07:05:32;19.80;99.90
40454;DHT22;26160;51.858;4.398;2022-08-19T07:07:58;19.90;99.90
40454;DHT22;26160;51.858;4.398;2022-08-19T07:10:23;19.90;99.90
40454;DHT22;26160;51.858;4.398;2022-08-19T07:12:50;20.10;99.90
40454;DHT22;26160;51.858;4.398;2022-08-19T07:15:17;20.10;99.90
40454;DHT22;26160;51.858;4.398;2022-08-19T07:17:43;20.10;99.90
40454;DHT22;26160;51.858;4.398;2022-08-19T07:20:09;20.00;99.90
40454;DHT22;26160;51.858;4.398;2022-08-19T07:22:38;20.10;99.90
40454;DHT22;26160;51.858;4.398;2022-08-19T07:25:05;20.10;99.90
40454;DHT22;26160;51.858;4.398;2022-08-19T07:27:31;20.10;99.90
40454;DHT22;26160;51.858;4.398;2022-08-19T07:29:57;20.10;99.90
40454;DHT22;26160;51.858;4.398;2022-08-19T07:32:23;20.10;99.90
40454;DHT22;26160;51.858;4.398;2022-08-19T07:34:52;20.10;99.90
40454;DHT22;26160;51.858;4.398;2022-08-19T07:37:18;20.20;99.90
40454;DHT22;26160;51.858;4.398;2022-08-19T07:39:44;20.20;99.90
40454;DHT22;26160;51.858;4.398;2022-08-19T07:42:10;20.20;99.90
40454;DHT22;26160;51.858;4.398;2022-08-19T07:44:36;20.40;99.90
40454;DHT22;26160;51.858;4.398;2022-08-19T07:47:03;20.60;99.90
40454;DHT22;26160;51.858;4.398;2022-08-19T07:49:29;20.60;99.90
40454;DHT22;26160;51.858;4.398;2022-08-19T07:54:22;20.80;99.90
40454;DHT22;26160;51.858;4.398;2022-08-19T07:56:48;20.70;99.90
40454;DHT22;26160;51.858;4.398;2022-08-19T07:59:17;20.90;99.90
40454;DHT22;26160;51.858;4.398;2022-08-19T08:01:43;20.90;99.90
40454;DHT22;26160;51.858;4.398;2022-08-19T08:04:10;20.90;99.90
40454;DHT22;26160;51.858;4.398;2022-08-19T08:06:54;20.80;99.90
40454;DHT22;26160;51.858;4.398;2022-08-19T08:09:40;20.90;99.90
40454;DHT22;26160;51.858;4.398;2022-08-19T08:14:34;21.60;99.90
40454;DHT22;26160;51.858;4.398;2022-08-19T08:17:03;21.60;99.90
40454;DHT22;26160;51.858;4.398;2022-08-19T08:19:29;21.70;99.90
40454;DHT22;26160;51.858;4.398;2022-08-19T08:21:56;22.00;99.90
40454;DHT22;26160;51.858;4.398;2022-08-19T08:24:23;21.80;99.90
40454;DHT22;26160;51.858;4.398;2022-08-19T08:26:49;22.00;99.90
40454;DHT22;26160;51.858;4.398;2022-08-19T08:29:15;22.10;99.90
40454;DHT22;26160;51.858;4.398;2022-08-19T08:31:42;22.20;99.90
40454;DHT22;26160;51.858;4.398;2022-08-19T08:34:08;22.20;99.90
40454;DHT22;26160;51.858;4.398;2022-08-19T08:36:38;22.20;99.90
40454;DHT22;26160;51.858;4.398;2022-08-19T08:39:08;22.20;99.90
40454;DHT22;26160;51.858;4.398;2022-08-19T08:41:41;22.30;99.90
40454;DHT22;26160;51.858;4.398;2022-08-19T08:44:23;22.40;99.90
40454;DHT22;26160;51.858;4.398;2022-08-19T08:46:51;22.00;99.90
40454;DHT22;26160;51.858;4.398;2022-08-19T08:49:23;22.00;99.90
40454;DHT22;26160;51.858;4.398;2022-08-19T08:54:39;22.00;99.90
40454;DHT22;26160;51.858;4.398;2022-08-19T08:57:20;22.00;99.90
40454;DHT22;26160;51.858;4.398;2022-08-19T08:59:47;22.00;99.90
40454;DHT22;26160;51.858;4.398;2022-08-19T09:02:18;22.00;99.90
40454;DHT22;26160;51.858;4.398;2022-08-19T09:04:44;22.00;99.90
40454;DHT22;26160;51.858;4.398;2022-08-19T09:07:14;22.10;99.90
40454;DHT22;26160;51.858;4.398;2022-08-19T09:09:45;22.40;99.90
40454;DHT22;26160;51.858;4.398;2022-08-19T09:12:18;22.80;99.90
40454;DHT22;26160;51.858;4.398;2022-08-19T09:15:03;22.80;99.90
40454;DHT22;26160;51.858;4.398;2022-08-19T09:17:30;22.70;99.90
40454;DHT22;26160;51.858;4.398;2022-08-19T09:22:31;22.80;99.90
40454;DHT22;26160;51.858;4.398;2022-08-19T09:24:57;22.50;99.90
40454;DHT22;26160;51.858;4.398;2022-08-19T09:27:24;22.40;99.90
40454;DHT22;26160;51.858;4.398;2022-08-19T09:29:51;22.30;99.90
40454;DHT22;26160;51.858;4.398;2022-08-19T09:32:17;22.20;99.90
40454;DHT22;26160;51.858;4.398;2022-08-19T09:34:43;22.30;99.90
40454;DHT22;26160;51.858;4.398;2022-08-19T09:37:09;22.30;99.90
40454;DHT22;26160;51.858;4.398;2022-08-19T09:39:35;22.40;99.90
40454;DHT22;26160;51.858;4.398;2022-08-19T09:42:02;22.60;99.90
40454;DHT22;26160;51.858;4.398;2022-08-19T09:44:29;22.70;99.90
40454;DHT22;26160;51.858;4.398;2022-08-19T09:46:55;22.70;99.90
40454;DHT22;26160;51.858;4.398;2022-08-19T09:49:21;22.90;99.90
40454;DHT22;26160;51.858;4.398;2022-08-19T09:51:51;22.90;99.90
40454;DHT22;26160;51.858;4.398;2022-08-19T09:54:17;23.10;99.90
40454;DHT22;26160;51.858;4.398;2022-08-19T09:56:43;23.20;99.90
40454;DHT22;26160;51.858;4.398;2022-08-19T09:59:10;23.30;99.90
40454;DHT22;26160;51.858;4.398;2022-08-19T10:01:37;23.70;99.90
40454;DHT22;26160;51.858;4.398;2022-08-19T10:04:03;24.10;99.90
40454;DHT22;26160;51.858;4.398;2022-08-19T10:06:36;24.20;99.90
40454;DHT22;26160;51.858;4.398;2022-08-19T10:09:03;24.10;99.90
40454;DHT22;26160;51.858;4.398;2022-08-19T10:11:32;24.10;99.90
40454;DHT22;26160;51.858;4.398;2022-08-19T10:13:58;24.10;99.90
40454;DHT22;26160;51.858;4.398;2022-08-19T10:16:25;24.00;99.90
40454;DHT22;26160;51.858;4.398;2022-08-19T10:18:51;24.10;99.90
40454;DHT22;26160;51.858;4.398;2022-08-19T10:23:44;24.40;99.90
40454;DHT22;26160;51.858;4.398;2022-08-19T10:26:12;24.40;99.90
40454;DHT22;26160;51.858;4.398;2022-08-19T10:28:38;23.80;99.90
40454;DHT22;26160;51.858;4.398;2022-08-19T10:31:08;23.70;99.90
40454;DHT22;26160;51.858;4.398;2022-08-19T10:33:34;23.60;99.90
40454;DHT22;26160;51.858;4.398;2022-08-19T10:36:02;23.60;99.90
40454;DHT22;26160;51.858;4.398;2022-08-19T10:38:29;23.80;99.90
40454;DHT22;26160;51.858;4.398;2022-08-19T10:40:55;24.20;99.90
40454;DHT22;26160;51.858;4.398;2022-08-19T10:43:21;24.60;99.90
40454;DHT22;26160;51.858;4.398;2022-08-19T10:45:53;25.00;99.90
40454;DHT22;26160;51.858;4.398;2022-08-19T10:48:22;25.30;99.90
40454;DHT22;26160;51.858;4.398;2022-08-19T10:50:48;25.20;99.90
40454;DHT22;26160;51.858;4.398;2022-08-19T10:53:32;25.40;99.90
40454;DHT22;26160;51.858;4.398;2022-08-19T10:55:58;25.20;99.90
40454;DHT22;26160;51.858;4.398;2022-08-19T10:58:43;25.10;99.90
40454;DHT22;26160;51.858;4.398;2022-08-19T11:01:10;24.90;99.90
40454;DHT22;26160;51.858;4.398;2022-08-19T11:03:36;24.50;99.90
40454;DHT22;26160;51.858;4.398;2022-08-19T11:06:03;24.50;99.90
40454;DHT22;26160;51.858;4.398;2022-08-19T11:08:29;24.30;99.90
40454;DHT22;26160;51.858;4.398;2022-08-19T11:10:57;24.20;99.90
40454;DHT22;26160;51.858;4.398;2022-08-19T11:13:27;24.10;99.90
40454;DHT22;26160;51.858;4.398;2022-08-19T11:15:56;24.40;99.90
40454;DHT22;26160;51.858;4.398;2022-08-19T11:18:22;24.40;99.90
40454;DHT22;26160;51.858;4.398;2022-08-19T11:20:48;24.60;99.90
40454;DHT22;26160;51.858;4.398;2022-08-19T11:23:14;24.90;99.90
40454;DHT22;26160;51.858;4.398;2022-08-19T11:25:40;25.10;99.90
40454;DHT22;26160;51.858;4.398;2022-08-19T11:28:07;25.10;99.90
40454;DHT22;26160;51.858;4.398;2022-08-19T11:30:33;25.00;99.90
40454;DHT22;26160;51.858;4.398;2022-08-19T11:32:59;24.90;99.90
40454;DHT22;26160;51.858;4.398;2022-08-19T11:35:26;24.90;99.90
40454;DHT22;26160;51.858;4.398;2022-08-19T11:37:52;24.60;99.90
40454;DHT22;26160;51.858;4.398;2022-08-19T11:40:19;24.60;99.90
40454;DHT22;26160;51.858;4.398;2022-08-19T11:42:45;24.60;99.90
40454;DHT22;26160;51.858;4.398;2022-08-19T11:45:21;24.50;99.90
40454;DHT22;26160;51.858;4.398;2022-08-19T11:47:47;24.60;99.90
40454;DHT22;26160;51.858;4.398;2022-08-19T11:50:15;24.90;99.90
40454;DHT22;26160;51.858;4.398;2022-08-19T11:52:41;25.10;99.90
40454;DHT22;26160;51.858;4.398;2022-08-19T11:55:07;25.30;99.90
40454;DHT22;26160;51.858;4.398;2022-08-19T11:57:33;25.30;99.90
40454;DHT22;26160;51.858;4.398;2022-08-19T11:59:59;25.10;99.90
40454;DHT22;26160;51.858;4.398;2022-08-19T12:02:25;24.40;99.90
40454;DHT22;26160;51.858;4.398;2022-08-19T12:04:51;24.20;99.90
40454;DHT22;26160;51.858;4.398;2022-08-19T12:07:17;24.00;99.90
40454;DHT22;26160;51.858;4.398;2022-08-19T12:09:43;23.40;99.90
40454;DHT22;26160;51.858;4.398;2022-08-19T12:12:09;23.10;99.90
40454;DHT22;26160;51.858;4.398;2022-08-19T12:14:35;22.90;99.90
40454;DHT22;26160;51.858;4.398;2022-08-19T12:17:01;22.80;99.90
40454;DHT22;26160;51.858;4.398;2022-08-19T12:19:27;23.00;99.90
40454;DHT22;26160;51.858;4.398;2022-08-19T12:21:54;23.30;99.90
40454;DHT22;26160;51.858;4.398;2022-08-19T12:24:25;23.40;99.90
40454;DHT22;26160;51.858;4.398;2022-08-19T12:26:51;23.40;99.90
40454;DHT22;26160;51.858;4.398;2022-08-19T12:29:17;23.40;99.90
40454;DHT22;26160;51.858;4.398;2022-08-19T12:31:43;23.30;99.90
40454;DHT22;26160;51.858;4.398;2022-08-19T12:34:09;23.30;99.90
40454;DHT22;26160;51.858;4.398;2022-08-19T12:36:35;23.80;99.90
40454;DHT22;26160;51.858;4.398;2022-08-19T12:39:01;24.10;99.90
40454;DHT22;26160;51.858;4.398;2022-08-19T12:41:27;24.20;99.90
40454;DHT22;26160;51.858;4.398;2022-08-19T12:43:53;23.90;99.90
40454;DHT22;26160;51.858;4.398;2022-08-19T12:46:19;24.00;99.90
40454;DHT22;26160;51.858;4.398;2022-08-19T12:48:45;24.30;99.90
40454;DHT22;26160;51.858;4.398;2022-08-19T12:51:13;24.60;99.90
40454;DHT22;26160;51.858;4.398;2022-08-19T12:53:39;24.90;99.90
40454;DHT22;26160;51.858;4.398;2022-08-19T12:56:08;25.00;99.90
40454;DHT22;26160;51.858;4.398;2022-08-19T12:58:34;25.00;99.90
40454;DHT22;26160;51.858;4.398;2022-08-19T13:01:09;24.90;99.90
40454;DHT22;26160;51.858;4.398;2022-08-19T13:03:36;24.90;99.90
40454;DHT22;26160;51.858;4.398;2022-08-19T13:06:02;24.90;99.90
40454;DHT22;26160;51.858;4.398;2022-08-19T13:08:28;25.10;99.90
40454;DHT22;26160;51.858;4.398;2022-08-19T13:10:54;25.20;99.90
40454;DHT22;26160;51.858;4.398;2022-08-19T13:13:21;25.30;99.90
40454;DHT22;26160;51.858;4.398;2022-08-19T13:15:47;25.30;99.90
40454;DHT22;26160;51.858;4.398;2022-08-19T13:18:13;25.20;99.90
40454;DHT22;26160;51.858;4.398;2022-08-19T13:20:40;25.30;99.90
40454;DHT22;26160;51.858;4.398;2022-08-19T13:23:09;25.10;99.90
40454;DHT22;26160;51.858;4.398;2022-08-19T13:25:35;25.00;99.90
40454;DHT22;26160;51.858;4.398;2022-08-19T13:28:01;24.90;99.90
40454;DHT22;26160;51.858;4.398;2022-08-19T13:30:27;24.90;99.90
40454;DHT22;26160;51.858;4.398;2022-08-19T13:33:32;24.50;99.90
40454;DHT22;26160;51.858;4.398;2022-08-19T13:35:59;24.50;99.90
40454;DHT22;26160;51.858;4.398;2022-08-19T13:38:26;24.50;99.90
40454;DHT22;26160;51.858;4.398;2022-08-19T13:40:53;24.40;99.90
40454;DHT22;26160;51.858;4.398;2022-08-19T13:43:20;24.10;99.90
40454;DHT22;26160;51.858;4.398;2022-08-19T13:45:48;23.50;99.90
40454;DHT22;26160;51.858;4.398;2022-08-19T13:48:14;22.90;99.90
40454;DHT22;26160;51.858;4.398;2022-08-19T13:50:42;22.60;99.90
40454;DHT22;26160;51.858;4.398;2022-08-19T13:53:09;22.30;99.90
40454;DHT22;26160;51.858;4.398;2022-08-19T13:55:37;22.20;99.90
40454;DHT22;26160;51.858;4.398;2022-08-19T13:58:03;22.10;99.90
40454;DHT22;26160;51.858;4.398;2022-08-19T14:00:30;22.10;99.90
40454;DHT22;26160;51.858;4.398;2022-08-19T14:02:57;22.10;99.90
40454;DHT22;26160;51.858;4.398;2022-08-19T14:05:23;22.10;99.90
40454;DHT22;26160;51.858;4.398;2022-08-19T14:07:49;22.20;99.90
40454;DHT22;26160;51.858;4.398;2022-08-19T14:10:16;22.20;99.90
40454;DHT22;26160;51.858;4.398;2022-08-19T14:12:42;22.10;99.90
40454;DHT22;26160;51.858;4.398;2022-08-19T14:15:08;22.00;99.90
40454;DHT22;26160;51.858;4.398;2022-08-19T14:17:37;22.00;99.90
40454;DHT22;26160;51.858;4.398;2022-08-19T14:20:04;22.00;99.90
40454;DHT22;26160;51.858;4.398;2022-08-19T14:22:34;22.10;99.90
40454;DHT22;26160;51.858;4.398;2022-08-19T14:25:00;22.40;99.90
40454;DHT22;26160;51.858;4.398;2022-08-19T14:27:26;22.60;99.90
40454;DHT22;26160;51.858;4.398;2022-08-19T14:29:52;22.80;99.90
40454;DHT22;26160;51.858;4.398;2022-08-19T14:32:18;22.80;99.90
40454;DHT22;26160;51.858;4.398;2022-08-19T14:34:44;22.80;99.90
40454;DHT22;26160;51.858;4.398;2022-08-19T14:37:13;22.60;99.90
40454;DHT22;26160;51.858;4.398;2022-08-19T14:39:43;22.50;99.90
40454;DHT22;26160;51.858;4.398;2022-08-19T14:42:10;22.50;99.90
40454;DHT22;26160;51.858;4.398;2022-08-19T14:44:37;22.40;99.90
40454;DHT22;26160;51.858;4.398;2022-08-19T14:47:03;22.40;99.90
40454;DHT22;26160;51.858;4.398;2022-08-19T14:49:29;22.30;99.90
40454;DHT22;26160;51.858;4.398;2022-08-19T14:51:55;22.30;99.90
40454;DHT22;26160;51.858;4.398;2022-08-19T14:54:22;22.40;99.90
40454;DHT22;26160;51.858;4.398;2022-08-19T14:56:48;22.60;99.90
40454;DHT22;26160;51.858;4.398;2022-08-19T14:59:14;22.70;99.90
40454;DHT22;26160;51.858;4.398;2022-08-19T15:01:40;22.70;99.90
40454;DHT22;26160;51.858;4.398;2022-08-19T15:04:06;22.60;99.90
40454;DHT22;26160;51.858;4.398;2022-08-19T15:06:32;22.30;99.90
40454;DHT22;26160;51.858;4.398;2022-08-19T15:08:58;22.00;99.90
40454;DHT22;26160;51.858;4.398;2022-08-19T15:11:25;21.90;99.90
40454;DHT22;26160;51.858;4.398;2022-08-19T15:13:53;21.80;99.90
40454;DHT22;26160;51.858;4.398;2022-08-19T15:16:21;21.70;99.90
40454;DHT22;26160;51.858;4.398;2022-08-19T15:18:49;21.90;99.90
40454;DHT22;26160;51.858;4.398;2022-08-19T15:21:15;22.00;99.90
40454;DHT22;26160;51.858;4.398;2022-08-19T15:23:46;22.00;99.90
40454;DHT22;26160;51.858;4.398;2022-08-19T15:26:13;22.10;99.90
40454;DHT22;26160;51.858;4.398;2022-08-19T15:28:40;22.10;99.90
40454;DHT22;26160;51.858;4.398;2022-08-19T15:31:07;22.10;99.90
40454;DHT22;26160;51.858;4.398;2022-08-19T15:33:34;22.00;99.90
40454;DHT22;26160;51.858;4.398;2022-08-19T15:36:03;21.90;99.90
40454;DHT22;26160;51.858;4.398;2022-08-19T15:38:30;21.90;99.90
40454;DHT22;26160;51.858;4.398;2022-08-19T15:40:59;21.90;99.90
40454;DHT22;26160;51.858;4.398;2022-08-19T15:43:45;21.90;99.90